Airfield :
LOGIN :

Register | Disclaimer

   EN    FR    IT 

 










Legend :    VFR   Marginal VFR   IFR   Intensive IFR   Very Intensive IFR
Visi :
Ceiling :
>= 8 km
>= 3000ft
5 to 8 km
1000 to 3000 ft
1500m to 5 km
500 to 1000 ft
800 to 1500m
200 to 500 ft
< 800m
< 200 ft
Symbols :   Thunderstorms  Fog  Heavy snow  Heavy precipitations  Wind > 20 kt
SIGMETs :     Misc.  Thunderstorms  Icing  Turbulence  Mountain Waves  Volcanic Ashes






- Airport Elevation : 665 ft
- IATA code : NOC


EIKN - Connaught / Knock- Ireland West

CURRENT METAR :
  • 150930Z 36006KT 9999 BKN002 OVC008 15/15 Q1005 BECMG BKN015

EXPIRED METARs :
  • 150900Z 36007KT 320V020 9000 BKN002 OVC008 15/15 Q1005 BECMG 9999 BKN015
  • 150830Z 36006KT 9000 BKN002 OVC008 15/15 Q1004 BECMG 9999 BKN015
  • 150800Z 34006KT 280V010 5000 BR BKN002 OVC008 15/15 Q1004 BECMG 9999 BKN015
  • 150730Z 35005KT 320V030 3000 BR BKN002 OVC008 15/15 Q1004 BECMG 9999 BKN015
  • 150700Z 01007KT 6000 BKN004 BKN009 15/15 Q1003 BECMG BKN005

TAF AMD TAF EIKN
Valid from the 15 at 07:00 until the 16 at 06:00 UTC


150724Z 1507/1606 01009KT 9000 BKN004 BKN009
PROB40
TEMPO 1507/1508 2000 SHRA BR SCT030CB
BECMG 1508/1510 SCT006 BKN015
TEMPO 1510/1515 4000 -SHRA BKN006 FEW030CB
TEMPO 1515/1606 36015G25KT -SHRA BKN008
PROB30
TEMPO 1515/1606 4000



MET'MAP, your aeronautical weather chart ! - Copyright ORBIFLY December 2007 - Disclaimer

ORBIFLY MET'MAP TEAM :

Programming & Development : Alexandra Zaïnal
Original concept : Baudouin d'Aumeries
Technical & hardware support : Manuel Goepfert
Assistance : Marc-Olivier Méhu




SOURCES & CREDITS :

   NOAA